createdAt,value
2019-03-17T00:00:23.444Z,74.50
2019-03-17T00:02:49.866Z,75.00
2019-03-17T00:05:18.223Z,74.90
2019-03-17T00:07:56.894Z,74.10
2019-03-17T00:10:26.378Z,73.90
2019-03-17T00:12:58.699Z,72.70
2019-03-17T00:15:28.190Z,72.10
2019-03-17T00:17:57.625Z,70.60
2019-03-17T00:20:27.018Z,70.20
2019-03-17T00:22:56.468Z,70.10
2019-03-17T00:25:25.912Z,68.50
2019-03-17T00:28:14.144Z,68.30
2019-03-17T00:30:56.869Z,67.60
2019-03-17T00:33:26.277Z,67.10
2019-03-17T00:35:58.846Z,66.50
2019-03-17T00:39:08.931Z,66.50
2019-03-17T00:42:03.106Z,66.80
2019-03-17T00:44:29.389Z,66.10
2019-03-17T00:47:10.979Z,65.80
2019-03-17T00:50:04.661Z,66.70
2019-03-17T00:52:36.743Z,66.00
2019-03-17T00:55:15.346Z,66.20
2019-03-17T00:57:49.746Z,66.60
2019-03-17T01:00:28.489Z,66.40
2019-03-17T01:03:02.153Z,66.80
2019-03-17T01:05:31.628Z,66.50
2019-03-17T01:08:10.093Z,67.00
2019-03-17T01:10:42.781Z,66.90
2019-03-17T01:13:21.461Z,67.20
2019-03-17T01:15:51.177Z,67.60
2019-03-17T01:18:26.633Z,67.70
2019-03-17T01:20:56.136Z,67.90
2019-03-17T01:23:25.530Z,67.80
2019-03-17T01:25:54.935Z,68.30
2019-03-17T01:28:21.294Z,69.60
2019-03-17T01:30:47.609Z,68.10
2019-03-17T01:33:29.308Z,68.20
2019-03-17T01:35:55.594Z,69.90
2019-03-17T01:38:36.224Z,69.70
2019-03-17T01:41:11.844Z,70.20
2019-03-17T01:43:38.160Z,70.10
2019-03-17T01:46:19.779Z,70.30
2019-03-17T01:48:49.371Z,70.40
2019-03-17T01:51:43.487Z,69.90
2019-03-17T01:54:18.717Z,69.70
2019-03-17T01:56:49.202Z,69.30
2019-03-17T01:59:17.538Z,69.90
2019-03-17T02:01:59.237Z,69.90
2019-03-17T02:04:29.634Z,69.90
2019-03-17T02:06:59.040Z,69.80
2019-03-17T02:09:32.608Z,71.00
2019-03-17T02:12:00.906Z,71.40
2019-03-17T02:14:30.323Z,71.40
2019-03-17T02:16:56.648Z,72.20
2019-03-17T02:19:26.052Z,72.30
2019-03-17T02:21:55.647Z,72.90
2019-03-17T02:24:30.843Z,72.80
2019-03-17T02:27:09.388Z,73.50
2019-03-17T02:29:38.845Z,74.20
2019-03-17T02:32:08.224Z,74.60
2019-03-17T02:34:34.591Z,75.00
2019-03-17T02:37:04.218Z,75.80
2019-03-17T02:39:36.450Z,76.10
2019-03-17T02:42:05.958Z,76.60
2019-03-17T02:44:35.350Z,77.70
2019-03-17T02:47:04.806Z,77.90
2019-03-17T02:49:53.249Z,78.20
2019-03-17T02:52:22.679Z,78.10
2019-03-17T02:54:58.290Z,77.50
2019-03-17T02:57:30.671Z,78.20
2019-03-17T03:00:10.241Z,78.30
2019-03-17T03:02:43.359Z,78.00
2019-03-17T03:05:15.752Z,77.40
2019-03-17T03:07:52.147Z,78.50
2019-03-17T03:10:24.693Z,77.70
2019-03-17T03:12:54.136Z,78.00
2019-03-17T03:15:23.577Z,78.50
2019-03-17T03:17:49.978Z,80.30
2019-03-17T03:20:23.562Z,80.40
2019-03-17T03:23:00.283Z,81.30
2019-03-17T03:25:34.932Z,81.50
2019-03-17T03:28:07.473Z,81.50
2019-03-17T03:37:34.466Z,83.00
2019-03-17T03:40:11.521Z,84.60
2019-03-17T03:43:00.898Z,84.50
2019-03-17T03:45:33.479Z,84.30
2019-03-17T03:48:02.946Z,84.10
2019-03-17T03:50:32.379Z,84.90
2019-03-17T03:53:04.719Z,83.50
2019-03-17T03:55:31.003Z,84.30
2019-03-17T03:58:00.488Z,83.10
2019-03-17T04:00:54.626Z,82.20
2019-03-17T04:03:42.804Z,83.90
2019-03-17T04:06:25.748Z,83.60
2019-03-17T04:08:42.366Z,84.60
2019-03-17T04:11:11.721Z,85.10
2019-03-17T04:14:08.326Z,85.40
2019-03-17T04:16:57.429Z,86.50
2019-03-17T04:19:34.122Z,86.40
2019-03-17T04:22:08.654Z,86.70
2019-03-17T04:24:59.810Z,86.80
2019-03-17T04:27:29.348Z,87.80
2019-03-17T04:29:55.648Z,88.00
2019-03-17T04:32:45.003Z,88.30
2019-03-17T04:35:14.453Z,89.10
2019-03-17T04:37:49.700Z,90.10
2019-03-17T04:40:19.081Z,90.60
2019-03-17T04:42:51.556Z,90.90
2019-03-17T04:45:20.957Z,91.20
2019-03-17T04:47:55.410Z,91.40
2019-03-17T04:50:40.453Z,91.70
2019-03-17T04:53:12.750Z,92.00
2019-03-17T04:55:49.225Z,92.00
2019-03-17T04:58:18.665Z,92.00
2019-03-17T05:00:51.033Z,92.00
2019-03-17T05:03:23.481Z,92.10
2019-03-17T05:05:55.787Z,91.70
2019-03-17T05:08:25.247Z,91.40
2019-03-17T05:10:54.651Z,91.30
2019-03-17T05:13:24.117Z,91.00
2019-03-17T05:16:27.071Z,90.80
2019-03-17T05:19:00.210Z,91.00
2019-03-17T05:21:29.639Z,90.90
2019-03-17T05:23:55.962Z,90.80
2019-03-17T05:26:22.271Z,90.70
2019-03-17T05:28:51.709Z,91.00
2019-03-17T05:31:27.117Z,91.10
2019-03-17T05:33:56.574Z,90.70
2019-03-17T05:36:29.117Z,90.70
2019-03-17T05:38:58.523Z,90.50
2019-03-17T05:41:31.164Z,90.90
2019-03-17T05:44:08.725Z,90.80
2019-03-17T05:46:51.519Z,90.70
2019-03-17T05:49:51.973Z,90.70
2019-03-17T05:52:40.398Z,90.50
2019-03-17T05:55:08.426Z,90.40
2019-03-17T05:57:49.799Z,90.00
2019-03-17T06:00:23.942Z,90.10
2019-03-17T06:02:56.285Z,89.70
2019-03-17T06:05:23.658Z,90.00
2019-03-17T06:07:53.161Z,89.80
2019-03-17T06:10:22.598Z,89.70
2019-03-17T06:12:55.976Z,89.30
2019-03-17T06:15:25.396Z,88.80
2019-03-17T06:17:53.952Z,88.30
2019-03-17T06:20:32.680Z,88.80
2019-03-17T06:23:35.975Z,89.00
2019-03-17T06:26:05.429Z,88.90
2019-03-17T06:28:40.193Z,88.20
2019-03-17T06:31:12.543Z,87.60
2019-03-17T06:34:01.683Z,87.50
2019-03-17T06:36:53.640Z,87.60
2019-03-17T06:39:27.053Z,87.10
2019-03-17T06:41:54.762Z,87.80
2019-03-17T06:44:21.154Z,87.00
2019-03-17T06:46:50.556Z,87.70
2019-03-17T06:49:20.193Z,87.20
2019-03-17T06:52:01.769Z,86.40
2019-03-17T06:54:33.915Z,85.90
2019-03-17T06:57:00.258Z,86.40
2019-03-17T06:59:29.738Z,85.80
2019-03-17T07:02:00.636Z,85.50
2019-03-17T07:04:40.253Z,85.20
2019-03-17T07:07:10.058Z,85.30
2019-03-17T07:09:42.561Z,85.40
2019-03-17T07:12:11.964Z,85.10
2019-03-17T07:14:41.624Z,84.40
2019-03-17T07:17:40.829Z,83.10
2019-03-17T07:20:11.678Z,82.60
2019-03-17T07:22:38.153Z,81.60
2019-03-17T07:25:08.222Z,81.70
2019-03-17T07:28:16.474Z,81.20
2019-03-17T07:31:09.668Z,80.50
2019-03-17T07:33:44.311Z,79.40
2019-03-17T07:36:13.709Z,80.50
2019-03-17T07:38:43.125Z,79.30
2019-03-17T07:41:11.656Z,78.90
2019-03-17T07:44:04.806Z,79.10
2019-03-17T07:46:41.984Z,77.70
2019-03-17T07:49:14.089Z,76.40
2019-03-17T07:51:43.493Z,70.90
2019-03-17T07:54:13.489Z,63.50
2019-03-17T07:56:45.088Z,58.10
2019-03-17T07:59:11.350Z,57.60
2019-03-17T08:01:40.744Z,58.40
2019-03-17T08:04:27.508Z,60.10
2019-03-17T08:07:00.071Z,61.10
2019-03-17T08:09:29.522Z,63.30
2019-03-17T08:11:58.944Z,63.90
2019-03-17T08:14:38.384Z,61.90
2019-03-17T08:17:10.875Z,63.10
2019-03-17T08:19:44.580Z,62.50
2019-03-17T08:22:25.022Z,62.80
2019-03-17T08:24:52.488Z,59.90
2019-03-17T08:27:43.894Z,57.20
2019-03-17T08:30:14.094Z,57.60
2019-03-17T08:32:43.487Z,60.60
2019-03-17T08:35:15.716Z,63.80
2019-03-17T08:37:48.059Z,63.60
2019-03-17T08:40:38.552Z,62.50
2019-03-17T08:43:12.839Z,59.60
2019-03-17T08:45:45.137Z,55.00
2019-03-17T08:48:14.528Z,54.60
2019-03-17T08:50:59.391Z,53.30
2019-03-17T08:53:28.806Z,52.50
2019-03-17T08:56:03.409Z,51.70
2019-03-17T08:58:39.110Z,51.60
2019-03-17T09:01:11.717Z,51.90
2019-03-17T09:03:48.437Z,52.80
2019-03-17T09:06:23.861Z,53.60
2019-03-17T09:08:53.305Z,49.90
2019-03-17T09:11:22.646Z,50.00
2019-03-17T09:13:55.231Z,50.00
2019-03-17T09:16:24.661Z,50.10
2019-03-17T09:19:03.283Z,52.60
2019-03-17T09:21:43.813Z,55.20
2019-03-17T09:24:17.324Z,57.50
2019-03-17T09:26:56.269Z,57.40
2019-03-17T09:29:25.739Z,57.60
2019-03-17T09:32:04.452Z,57.20
2019-03-17T09:34:40.221Z,59.10
2019-03-17T09:37:09.694Z,59.80
2019-03-17T09:39:47.478Z,57.00
2019-03-17T09:42:22.998Z,57.10
2019-03-17T09:44:55.413Z,58.60
2019-03-17T09:47:28.846Z,59.10
2019-03-17T09:50:00.418Z,59.30
2019-03-17T09:52:29.798Z,60.50
2019-03-17T09:55:03.823Z,60.90
2019-03-17T09:57:38.288Z,61.40
2019-03-17T10:03:37.142Z,62.20
2019-03-17T10:06:05.626Z,60.20
2019-03-17T10:09:27.962Z,59.90
2019-03-17T10:12:00.347Z,59.70
2019-03-17T10:15:46.246Z,59.20
2019-03-17T10:18:22.996Z,59.20
2019-03-17T10:20:52.452Z,57.20
2019-03-17T10:23:22.477Z,56.70
2019-03-17T10:25:52.417Z,57.30
2019-03-17T10:28:51.519Z,56.70
2019-03-17T10:31:20.734Z,57.20
2019-03-17T10:33:51.149Z,57.10
2019-03-17T10:36:22.035Z,56.60
2019-03-17T10:38:55.129Z,56.70
2019-03-17T10:41:45.158Z,57.30
2019-03-17T10:44:19.252Z,57.20
2019-03-17T10:46:52.931Z,58.40
2019-03-17T10:49:21.009Z,57.70
2019-03-17T10:51:49.386Z,56.60
2019-03-17T10:54:22.509Z,56.40
2019-03-17T10:56:58.961Z,56.90
2019-03-17T10:59:38.341Z,57.10
2019-03-17T11:02:07.811Z,58.40
2019-03-17T11:04:36.579Z,58.30
2019-03-17T11:07:07.499Z,57.60
2019-03-17T11:09:34.173Z,60.10
2019-03-17T11:12:35.013Z,58.40
2019-03-17T11:15:16.154Z,58.60
2019-03-17T11:17:48.549Z,57.30
2019-03-17T11:20:15.090Z,55.80
2019-03-17T11:22:45.497Z,55.70
2019-03-17T11:25:19.694Z,56.80
2019-03-17T11:27:52.402Z,56.90
2019-03-17T11:30:24.858Z,56.80
2019-03-17T11:32:57.465Z,56.20
2019-03-17T11:35:30.289Z,54.10
2019-03-17T11:38:03.043Z,55.30
2019-03-17T11:40:31.384Z,54.90
2019-03-17T11:43:00.801Z,55.00
2019-03-17T11:45:33.009Z,53.30
2019-03-17T11:48:02.351Z,53.40
2019-03-17T11:50:28.655Z,51.40
2019-03-17T11:53:07.360Z,52.00
2019-03-17T11:55:36.790Z,52.50
2019-03-17T11:58:38.315Z,53.00
2019-03-17T12:01:04.657Z,53.10
2019-03-17T12:03:39.812Z,53.40
2019-03-17T12:06:09.330Z,55.20
2019-03-17T12:08:51.032Z,53.40
2019-03-17T12:11:20.439Z,53.00
2019-03-17T12:13:59.248Z,53.10
2019-03-17T12:16:28.959Z,51.80
2019-03-17T12:19:01.252Z,53.50
2019-03-17T12:21:30.679Z,52.70
2019-03-17T12:24:00.066Z,57.00
2019-03-17T12:26:33.692Z,60.10
2019-03-17T12:29:36.984Z,65.40
2019-03-17T12:32:59.499Z,65.30
2019-03-17T12:35:37.815Z,68.10
2019-03-17T12:38:12.331Z,68.40
2019-03-17T12:40:44.938Z,69.60
2019-03-17T12:43:16.359Z,70.40
2019-03-17T12:45:54.765Z,68.90
2019-03-17T12:48:28.128Z,68.70
2019-03-17T12:50:57.547Z,66.90
2019-03-17T12:53:36.213Z,67.30
2019-03-17T12:56:11.784Z,62.20
2019-03-17T12:58:38.084Z,59.80
2019-03-17T13:01:19.884Z,59.10
2019-03-17T13:03:52.401Z,61.10
2019-03-17T13:06:28.054Z,59.70
2019-03-17T13:08:57.465Z,59.40
2019-03-17T13:11:23.891Z,57.30
2019-03-17T13:14:11.724Z,52.70
2019-03-17T13:16:44.214Z,54.00
2019-03-17T13:19:41.696Z,54.50
2019-03-17T13:22:15.893Z,56.90
2019-03-17T13:24:45.264Z,57.30
2019-03-17T13:27:14.645Z,59.20
2019-03-17T13:29:44.068Z,59.80
2019-03-17T13:32:30.919Z,60.30
2019-03-17T13:34:57.261Z,63.60
2019-03-17T13:37:24.645Z,64.70
2019-03-17T13:39:54.135Z,64.20
2019-03-17T13:42:20.555Z,66.70
2019-03-17T13:44:55.775Z,66.80
2019-03-17T13:47:25.151Z,66.50
2019-03-17T13:49:54.673Z,69.10
2019-03-17T13:52:39.366Z,71.60
2019-03-17T13:55:08.823Z,74.50
2019-03-17T13:57:35.661Z,76.60
2019-03-17T14:00:02.384Z,76.70
2019-03-17T14:02:33.754Z,78.40
2019-03-17T14:05:25.183Z,78.40
2019-03-17T14:07:52.564Z,75.80
2019-03-17T14:10:21.967Z,76.40
2019-03-17T14:13:04.571Z,76.30
2019-03-17T14:15:36.743Z,73.50
2019-03-17T14:18:21.980Z,72.70
2019-03-17T14:20:58.657Z,72.30
2019-03-17T14:23:25.046Z,70.50
2019-03-17T14:25:59.781Z,70.30
2019-03-17T14:28:37.115Z,68.30
2019-03-17T14:31:03.480Z,67.10
2019-03-17T14:33:29.850Z,67.70
2019-03-17T14:35:56.136Z,67.20
2019-03-17T14:38:22.481Z,64.10
2019-03-17T14:40:53.246Z,65.60
2019-03-17T14:43:16.899Z,65.30
2019-03-17T14:45:45.294Z,63.60
2019-03-17T14:48:11.598Z,64.10
2019-03-17T14:50:37.895Z,63.60
2019-03-17T14:53:10.183Z,62.60
2019-03-17T14:55:36.562Z,64.40
2019-03-17T14:58:03.043Z,62.40
2019-03-17T15:00:29.397Z,60.30
2019-03-17T15:02:55.760Z,58.90
2019-03-17T15:05:25.183Z,58.20
2019-03-17T15:07:50.453Z,58.70
2019-03-17T15:10:24.179Z,57.50
2019-03-17T15:12:56.472Z,57.80
2019-03-17T15:15:24.934Z,57.30
2019-03-17T15:17:51.199Z,58.30
2019-03-17T15:20:25.653Z,57.30
2019-03-17T15:22:51.927Z,56.10
2019-03-17T15:25:18.383Z,57.70
2019-03-17T15:27:44.771Z,57.50
2019-03-17T15:30:27.862Z,57.30
2019-03-17T15:32:54.170Z,57.70
2019-03-17T15:35:20.616Z,57.10
2019-03-17T15:37:46.901Z,54.90
2019-03-17T15:40:17.774Z,62.50
2019-03-17T15:42:44.098Z,66.30
2019-03-17T15:45:12.379Z,72.10
2019-03-17T15:47:38.753Z,76.80
2019-03-17T15:50:08.915Z,79.60
2019-03-17T15:52:37.231Z,82.90
2019-03-17T15:55:06.742Z,83.40
2019-03-17T15:57:33.273Z,85.70
2019-03-17T15:59:59.822Z,86.00
2019-03-17T16:02:37.895Z,86.40
2019-03-17T16:05:05.299Z,85.10
2019-03-17T16:07:41.821Z,87.00
2019-03-17T16:09:59.807Z,86.60
2019-03-17T16:12:26.194Z,86.80
2019-03-17T16:14:52.457Z,84.20
2019-03-17T16:17:18.788Z,82.70
2019-03-17T16:19:45.079Z,83.50
2019-03-17T16:22:11.562Z,82.30
2019-03-17T16:24:38.084Z,83.30
2019-03-17T16:27:18.258Z,84.60
2019-03-17T16:29:44.797Z,83.10
2019-03-17T16:32:11.057Z,84.40
2019-03-17T16:34:37.391Z,83.60
2019-03-17T16:37:03.746Z,83.90
2019-03-17T16:39:30.178Z,85.70
2019-03-17T16:41:56.443Z,84.60
2019-03-17T16:44:22.980Z,82.30
2019-03-17T16:46:49.343Z,82.90
2019-03-17T16:49:15.659Z,82.70
2019-03-17T16:51:41.983Z,82.80
2019-03-17T16:54:08.293Z,81.80
2019-03-17T16:56:35.142Z,83.40
2019-03-17T16:59:01.398Z,83.20
2019-03-17T17:01:27.700Z,83.50
2019-03-17T17:03:55.955Z,83.60
2019-03-17T17:06:24.345Z,82.90
2019-03-17T17:08:50.636Z,84.20
2019-03-17T17:11:18.668Z,84.30
2019-03-17T17:13:44.931Z,83.40
2019-03-17T17:16:11.231Z,84.00
2019-03-17T17:18:39.491Z,81.90
2019-03-17T17:21:05.762Z,83.20
2019-03-17T17:23:32.473Z,83.90
2019-03-17T17:25:58.736Z,83.50
2019-03-17T17:28:34.128Z,82.80
2019-03-17T17:31:04.541Z,82.20
2019-03-17T17:33:36.984Z,81.30
2019-03-17T17:36:06.371Z,81.40
2019-03-17T17:38:33.864Z,83.00
2019-03-17T17:41:25.223Z,82.70
2019-03-17T17:43:57.720Z,82.00
2019-03-17T17:46:32.964Z,81.00
2019-03-17T17:49:01.361Z,83.00
2019-03-17T17:51:27.662Z,83.20
2019-03-17T17:53:53.978Z,83.80
2019-03-17T17:56:20.366Z,82.90
2019-03-17T17:58:56.872Z,82.50
2019-03-17T18:01:23.153Z,83.50
2019-03-17T18:03:55.767Z,83.90
2019-03-17T18:06:24.146Z,84.10
2019-03-17T18:08:50.545Z,84.10
2019-03-17T18:11:22.862Z,83.90
2019-03-17T18:13:52.269Z,84.10
2019-03-17T18:16:21.715Z,84.70
2019-03-17T18:18:51.038Z,84.60
2019-03-17T18:21:26.672Z,85.60
2019-03-17T18:23:52.951Z,83.70
2019-03-17T18:26:50.066Z,83.30
2019-03-17T18:29:18.260Z,83.20
2019-03-17T18:31:44.533Z,83.80
2019-03-17T18:34:42.846Z,84.50
2019-03-17T18:37:37.138Z,84.30
2019-03-17T18:40:11.774Z,83.10
2019-03-17T18:42:49.961Z,83.10
2019-03-17T18:45:42.794Z,83.00
2019-03-17T18:48:19.053Z,81.80
2019-03-17T18:50:45.415Z,83.40
2019-03-17T18:53:14.796Z,80.80
2019-03-17T18:55:47.085Z,81.00
2019-03-17T18:58:18.655Z,81.80
2019-03-17T19:00:46.070Z,81.30
2019-03-17T19:03:15.519Z,81.80
2019-03-17T19:05:44.952Z,81.20
2019-03-17T19:08:14.242Z,82.10
2019-03-17T19:10:58.939Z,81.40
2019-03-17T19:13:25.311Z,80.40
2019-03-17T19:15:51.567Z,80.20
2019-03-17T19:18:17.877Z,81.60
2019-03-17T19:20:47.267Z,81.20
2019-03-17T19:23:16.896Z,79.80
2019-03-17T19:25:43.221Z,77.40
2019-03-17T19:28:09.551Z,76.40
2019-03-17T19:30:35.846Z,75.50
2019-03-17T19:33:04.151Z,75.40
2019-03-17T19:35:33.610Z,75.80
2019-03-17T19:38:08.934Z,75.80
2019-03-17T19:40:36.312Z,75.70
2019-03-17T19:43:02.584Z,75.30
2019-03-17T19:45:38.203Z,75.80
2019-03-17T19:48:08.358Z,76.30
2019-03-17T19:50:41.715Z,77.10
2019-03-17T19:53:33.134Z,77.00
2019-03-17T19:56:05.440Z,78.20
2019-03-17T19:58:34.850Z,78.50
2019-03-17T20:01:06.203Z,79.30
2019-03-17T20:03:35.709Z,79.80
2019-03-17T20:06:10.546Z,80.00
2019-03-17T20:08:36.147Z,80.60
2019-03-17T20:11:03.558Z,81.80
2019-03-17T20:13:35.736Z,81.30
2019-03-17T20:16:08.237Z,82.00
2019-03-17T20:18:43.860Z,82.30
2019-03-17T20:21:10.126Z,83.50
2019-03-17T20:23:43.097Z,84.70
2019-03-17T20:26:15.641Z,85.00
2019-03-17T20:28:55.180Z,83.60
2019-03-17T20:31:23.560Z,84.10
2019-03-17T20:33:49.831Z,84.80
2019-03-17T20:36:19.154Z,84.50
2019-03-17T20:38:45.398Z,84.70
2019-03-17T20:41:11.695Z,84.90
2019-03-17T20:43:37.987Z,85.90
2019-03-17T20:46:04.264Z,87.30
2019-03-17T20:48:30.519Z,87.70
2019-03-17T20:50:59.189Z,87.90
2019-03-17T20:53:28.016Z,88.70
2019-03-17T20:55:54.308Z,88.80
2019-03-17T20:58:20.582Z,89.10
2019-03-17T21:00:46.834Z,89.20
2019-03-17T21:03:13.128Z,89.40
2019-03-17T21:05:39.396Z,89.60
2019-03-17T21:08:05.646Z,89.10
2019-03-17T21:10:31.934Z,89.60
2019-03-17T21:12:58.230Z,89.70
2019-03-17T21:15:24.905Z,89.00
2019-03-17T21:17:51.165Z,88.90
2019-03-17T21:20:22.662Z,89.30
2019-03-17T21:22:49.042Z,89.30
2019-03-17T21:25:15.322Z,90.20
2019-03-17T21:27:41.606Z,90.00
2019-03-17T21:30:24.479Z,89.80
2019-03-17T21:32:50.815Z,89.80
2019-03-17T21:35:17.083Z,90.20
2019-03-17T21:37:43.352Z,90.40
2019-03-17T21:40:12.861Z,90.60
2019-03-17T21:42:39.133Z,90.70
2019-03-17T21:45:10.019Z,90.60
2019-03-17T21:47:36.334Z,90.20
2019-03-17T21:50:06.243Z,90.60
2019-03-17T21:52:32.544Z,90.60
2019-03-17T21:54:58.795Z,90.90
2019-03-17T21:57:25.082Z,90.80
2019-03-17T21:59:51.447Z,91.10
2019-03-17T22:02:17.717Z,91.00
2019-03-17T22:04:44.025Z,91.30
2019-03-17T22:07:10.255Z,91.20
2019-03-17T22:09:36.723Z,90.90
2019-03-17T22:12:02.961Z,90.90
2019-03-17T22:14:29.207Z,91.20
2019-03-17T22:16:55.512Z,91.00
2019-03-17T22:19:21.758Z,90.50
2019-03-17T22:21:48.018Z,90.80
2019-03-17T22:24:14.287Z,90.50
2019-03-17T22:26:40.533Z,90.60
2019-03-17T22:29:06.863Z,90.60
2019-03-17T22:31:33.159Z,90.80
2019-03-17T22:34:02.445Z,90.90
2019-03-17T22:36:28.743Z,91.00
2019-03-17T22:38:54.990Z,91.20
2019-03-17T22:41:23.331Z,91.00
2019-03-17T22:43:49.571Z,91.10
2019-03-17T22:46:15.826Z,91.40
2019-03-17T22:48:42.123Z,91.40
2019-03-17T22:51:08.403Z,91.50
2019-03-17T22:53:37.691Z,91.10
2019-03-17T22:56:10.228Z,91.30
2019-03-17T22:58:36.507Z,91.20
2019-03-17T23:01:02.793Z,91.10
2019-03-17T23:03:29.074Z,91.30
2019-03-17T23:05:55.334Z,91.60
2019-03-17T23:08:21.578Z,91.60
2019-03-17T23:10:47.873Z,91.40
2019-03-17T23:13:19.885Z,91.00
2019-03-17T23:15:46.135Z,90.70
2019-03-17T23:18:15.456Z,90.70
2019-03-17T23:20:51.162Z,90.70
2019-03-17T23:23:17.439Z,90.50
2019-03-17T23:25:45.588Z,90.50
2019-03-17T23:28:11.890Z,90.40
2019-03-17T23:30:38.191Z,90.70
2019-03-17T23:33:04.414Z,90.70
2019-03-17T23:35:36.752Z,90.70
2019-03-17T23:38:03.022Z,90.80
2019-03-17T23:40:29.259Z,90.70
2019-03-17T23:42:55.564Z,90.60
2019-03-17T23:45:21.814Z,90.40
2019-03-17T23:47:48.094Z,90.70
2019-03-17T23:50:14.359Z,90.90
2019-03-17T23:52:40.624Z,90.90
2019-03-17T23:55:09.396Z,90.90
2019-03-17T23:57:35.763Z,90.90
